sensor_id;sensor_type;location;lat;lon;timestamp;P1;durP1;ratioP1;P2;durP2;ratioP2
62588;SDS011;58504;48.770;9.148;2023-03-16T00:01:01;2.22;;;2.00;;
62588;SDS011;58504;48.770;9.148;2023-03-16T00:03:30;2.53;;;1.88;;
62588;SDS011;58504;48.770;9.148;2023-03-16T00:05:57;1.73;;;1.60;;
62588;SDS011;58504;48.770;9.148;2023-03-16T00:08:23;1.75;;;1.65;;
62588;SDS011;58504;48.770;9.148;2023-03-16T00:10:50;2.13;;;1.63;;
62588;SDS011;58504;48.770;9.148;2023-03-16T00:13:18;1.90;;;1.80;;
62588;SDS011;58504;48.770;9.148;2023-03-16T00:15:50;1.88;;;1.77;;
62588;SDS011;58504;48.770;9.148;2023-03-16T00:18:18;2.25;;;2.05;;
62588;SDS011;58504;48.770;9.148;2023-03-16T00:20:50;5.75;;;2.00;;
62588;SDS011;58504;48.770;9.148;2023-03-16T00:23:17;1.75;;;1.65;;
62588;SDS011;58504;48.770;9.148;2023-03-16T00:25:51;2.10;;;1.85;;
62588;SDS011;58504;48.770;9.148;2023-03-16T00:28:19;1.85;;;1.75;;
62588;SDS011;58504;48.770;9.148;2023-03-16T00:30:46;2.05;;;1.75;;
62588;SDS011;58504;48.770;9.148;2023-03-16T00:33:13;1.40;;;1.30;;
62588;SDS011;58504;48.770;9.148;2023-03-16T00:35:39;1.60;;;1.50;;
62588;SDS011;58504;48.770;9.148;2023-03-16T00:38:15;1.77;;;1.58;;
62588;SDS011;58504;48.770;9.148;2023-03-16T00:40:42;1.92;;;1.83;;
62588;SDS011;58504;48.770;9.148;2023-03-16T00:43:09;1.60;;;1.50;;
62588;SDS011;58504;48.770;9.148;2023-03-16T00:45:36;2.38;;;1.50;;
62588;SDS011;58504;48.770;9.148;2023-03-16T00:48:03;1.55;;;1.45;;
62588;SDS011;58504;48.770;9.148;2023-03-16T00:50:30;1.58;;;1.45;;
62588;SDS011;58504;48.770;9.148;2023-03-16T00:52:57;2.00;;;1.70;;
62588;SDS011;58504;48.770;9.148;2023-03-16T00:55:25;1.50;;;1.40;;
62588;SDS011;58504;48.770;9.148;2023-03-16T00:57:52;1.85;;;1.48;;
62588;SDS011;58504;48.770;9.148;2023-03-16T01:00:19;1.60;;;1.45;;
62588;SDS011;58504;48.770;9.148;2023-03-16T01:02:47;1.52;;;1.42;;
62588;SDS011;58504;48.770;9.148;2023-03-16T01:05:14;2.30;;;1.63;;
62588;SDS011;58504;48.770;9.148;2023-03-16T01:07:41;1.33;;;1.23;;
62588;SDS011;58504;48.770;9.148;2023-03-16T01:10:09;1.45;;;1.35;;
62588;SDS011;58504;48.770;9.148;2023-03-16T01:12:38;2.08;;;1.70;;
62588;SDS011;58504;48.770;9.148;2023-03-16T01:15:05;1.50;;;1.40;;
62588;SDS011;58504;48.770;9.148;2023-03-16T01:17:33;1.20;;;1.10;;
62588;SDS011;58504;48.770;9.148;2023-03-16T01:19:59;1.67;;;1.58;;
62588;SDS011;58504;48.770;9.148;2023-03-16T01:22:26;1.40;;;1.30;;
62588;SDS011;58504;48.770;9.148;2023-03-16T01:24:53;1.10;;;1.10;;
62588;SDS011;58504;48.770;9.148;2023-03-16T01:27:20;1.40;;;1.30;;
62588;SDS011;58504;48.770;9.148;2023-03-16T01:29:51;1.35;;;1.33;;
62588;SDS011;58504;48.770;9.148;2023-03-16T01:32:18;1.70;;;1.60;;
62588;SDS011;58504;48.770;9.148;2023-03-16T01:34:44;1.60;;;1.50;;
62588;SDS011;58504;48.770;9.148;2023-03-16T01:37:11;1.33;;;1.23;;
62588;SDS011;58504;48.770;9.148;2023-03-16T01:39:38;1.35;;;1.25;;
62588;SDS011;58504;48.770;9.148;2023-03-16T01:42:05;1.25;;;1.25;;
62588;SDS011;58504;48.770;9.148;2023-03-16T01:47:19;1.40;;;1.30;;
62588;SDS011;58504;48.770;9.148;2023-03-16T01:49:47;1.30;;;1.20;;
62588;SDS011;58504;48.770;9.148;2023-03-16T01:52:20;1.13;;;1.02;;
62588;SDS011;58504;48.770;9.148;2023-03-16T01:54:50;1.50;;;1.40;;
62588;SDS011;58504;48.770;9.148;2023-03-16T01:57:20;1.35;;;1.30;;
62588;SDS011;58504;48.770;9.148;2023-03-16T01:59:51;1.90;;;1.52;;
62588;SDS011;58504;48.770;9.148;2023-03-16T02:02:22;1.52;;;1.42;;
62588;SDS011;58504;48.770;9.148;2023-03-16T02:04:53;1.30;;;1.20;;
62588;SDS011;58504;48.770;9.148;2023-03-16T02:07:26;1.33;;;1.25;;
62588;SDS011;58504;48.770;9.148;2023-03-16T02:09:56;1.40;;;1.30;;
62588;SDS011;58504;48.770;9.148;2023-03-16T02:12:26;1.20;;;1.10;;
62588;SDS011;58504;48.770;9.148;2023-03-16T02:14:55;1.40;;;1.30;;
62588;SDS011;58504;48.770;9.148;2023-03-16T02:17:22;1.58;;;1.48;;
62588;SDS011;58504;48.770;9.148;2023-03-16T02:19:52;1.30;;;1.20;;
62588;SDS011;58504;48.770;9.148;2023-03-16T02:22:31;1.50;;;1.40;;
62588;SDS011;58504;48.770;9.148;2023-03-16T02:25:00;1.40;;;1.33;;
62588;SDS011;58504;48.770;9.148;2023-03-16T02:27:29;1.23;;;1.23;;
62588;SDS011;58504;48.770;9.148;2023-03-16T02:30:07;1.13;;;1.13;;
62588;SDS011;58504;48.770;9.148;2023-03-16T02:32:36;1.48;;;1.27;;
62588;SDS011;58504;48.770;9.148;2023-03-16T02:35:06;1.30;;;1.25;;
62588;SDS011;58504;48.770;9.148;2023-03-16T02:37:34;1.60;;;1.50;;
62588;SDS011;58504;48.770;9.148;2023-03-16T02:40:01;1.40;;;1.30;;
62588;SDS011;58504;48.770;9.148;2023-03-16T02:42:41;1.30;;;1.20;;
62588;SDS011;58504;48.770;9.148;2023-03-16T02:45:10;1.60;;;1.50;;
62588;SDS011;58504;48.770;9.148;2023-03-16T02:47:39;0.80;;;0.80;;
62588;SDS011;58504;48.770;9.148;2023-03-16T02:50:07;1.15;;;1.08;;
62588;SDS011;58504;48.770;9.148;2023-03-16T02:52:36;1.10;;;1.05;;
62588;SDS011;58504;48.770;9.148;2023-03-16T02:55:05;1.67;;;1.25;;
62588;SDS011;58504;48.770;9.148;2023-03-16T02:57:33;1.45;;;1.38;;
62588;SDS011;58504;48.770;9.148;2023-03-16T03:00:00;1.15;;;1.15;;
62588;SDS011;58504;48.770;9.148;2023-03-16T03:02:31;1.50;;;1.40;;
62588;SDS011;58504;48.770;9.148;2023-03-16T03:04:58;1.40;;;1.30;;
62588;SDS011;58504;48.770;9.148;2023-03-16T03:07:26;1.67;;;1.58;;
62588;SDS011;58504;48.770;9.148;2023-03-16T03:09:55;1.40;;;1.30;;
62588;SDS011;58504;48.770;9.148;2023-03-16T03:12:22;0.90;;;0.90;;
62588;SDS011;58504;48.770;9.148;2023-03-16T03:14:49;1.30;;;1.20;;
62588;SDS011;58504;48.770;9.148;2023-03-16T03:17:16;1.35;;;1.27;;
62588;SDS011;58504;48.770;9.148;2023-03-16T03:19:44;1.08;;;1.08;;
62588;SDS011;58504;48.770;9.148;2023-03-16T03:22:10;1.33;;;1.23;;
62588;SDS011;58504;48.770;9.148;2023-03-16T03:24:43;1.17;;;1.10;;
62588;SDS011;58504;48.770;9.148;2023-03-16T03:27:10;1.25;;;1.15;;
62588;SDS011;58504;48.770;9.148;2023-03-16T03:29:36;1.23;;;1.23;;
62588;SDS011;58504;48.770;9.148;2023-03-16T03:32:03;1.10;;;1.10;;
62588;SDS011;58504;48.770;9.148;2023-03-16T03:34:30;1.17;;;1.13;;
62588;SDS011;58504;48.770;9.148;2023-03-16T03:36:59;1.23;;;1.13;;
62588;SDS011;58504;48.770;9.148;2023-03-16T03:39:26;1.08;;;1.00;;
62588;SDS011;58504;48.770;9.148;2023-03-16T03:41:52;1.10;;;1.10;;
62588;SDS011;58504;48.770;9.148;2023-03-16T03:44:19;1.15;;;0.98;;
62588;SDS011;58504;48.770;9.148;2023-03-16T03:46:46;1.10;;;1.10;;
62588;SDS011;58504;48.770;9.148;2023-03-16T03:49:13;1.40;;;1.30;;
62588;SDS011;58504;48.770;9.148;2023-03-16T03:51:40;1.17;;;1.08;;
62588;SDS011;58504;48.770;9.148;2023-03-16T03:54:09;1.20;;;1.20;;
62588;SDS011;58504;48.770;9.148;2023-03-16T03:56:35;1.20;;;1.20;;
62588;SDS011;58504;48.770;9.148;2023-03-16T03:59:02;1.10;;;1.10;;
62588;SDS011;58504;48.770;9.148;2023-03-16T04:01:29;1.13;;;1.13;;
62588;SDS011;58504;48.770;9.148;2023-03-16T04:03:56;0.80;;;0.80;;
62588;SDS011;58504;48.770;9.148;2023-03-16T04:06:23;1.00;;;1.00;;
62588;SDS011;58504;48.770;9.148;2023-03-16T04:08:49;0.90;;;0.90;;
62588;SDS011;58504;48.770;9.148;2023-03-16T04:11:19;1.55;;;1.45;;
62588;SDS011;58504;48.770;9.148;2023-03-16T04:13:46;1.42;;;1.27;;
62588;SDS011;58504;48.770;9.148;2023-03-16T04:16:13;0.82;;;0.82;;
62588;SDS011;58504;48.770;9.148;2023-03-16T04:18:40;1.50;;;1.40;;
62588;SDS011;58504;48.770;9.148;2023-03-16T04:21:08;1.20;;;1.15;;
62588;SDS011;58504;48.770;9.148;2023-03-16T04:26:06;1.08;;;1.08;;
62588;SDS011;58504;48.770;9.148;2023-03-16T04:28:34;1.30;;;1.08;;
62588;SDS011;58504;48.770;9.148;2023-03-16T04:31:01;1.10;;;1.00;;
62588;SDS011;58504;48.770;9.148;2023-03-16T04:33:29;1.10;;;1.10;;
62588;SDS011;58504;48.770;9.148;2023-03-16T04:35:57;1.33;;;1.20;;
62588;SDS011;58504;48.770;9.148;2023-03-16T04:38:24;1.00;;;1.00;;
62588;SDS011;58504;48.770;9.148;2023-03-16T04:40:51;1.30;;;1.20;;
62588;SDS011;58504;48.770;9.148;2023-03-16T04:43:17;1.08;;;1.08;;
62588;SDS011;58504;48.770;9.148;2023-03-16T04:45:45;1.10;;;1.10;;
62588;SDS011;58504;48.770;9.148;2023-03-16T04:48:12;1.15;;;1.13;;
62588;SDS011;58504;48.770;9.148;2023-03-16T04:50:39;1.33;;;1.23;;
62588;SDS011;58504;48.770;9.148;2023-03-16T04:53:06;1.10;;;1.10;;
62588;SDS011;58504;48.770;9.148;2023-03-16T04:55:32;1.33;;;1.20;;
62588;SDS011;58504;48.770;9.148;2023-03-16T04:57:59;1.33;;;1.23;;
62588;SDS011;58504;48.770;9.148;2023-03-16T05:00:26;1.10;;;1.10;;
62588;SDS011;58504;48.770;9.148;2023-03-16T05:02:54;1.58;;;1.48;;
62588;SDS011;58504;48.770;9.148;2023-03-16T05:05:21;1.20;;;1.10;;
62588;SDS011;58504;48.770;9.148;2023-03-16T05:07:48;1.10;;;1.10;;
62588;SDS011;58504;48.770;9.148;2023-03-16T05:10:16;1.10;;;1.10;;
62588;SDS011;58504;48.770;9.148;2023-03-16T05:12:43;1.10;;;1.10;;
62588;SDS011;58504;48.770;9.148;2023-03-16T05:15:10;1.40;;;1.30;;
62588;SDS011;58504;48.770;9.148;2023-03-16T05:17:37;1.30;;;1.20;;
62588;SDS011;58504;48.770;9.148;2023-03-16T05:20:08;1.20;;;1.10;;
62588;SDS011;58504;48.770;9.148;2023-03-16T05:22:37;2.35;;;1.25;;
62588;SDS011;58504;48.770;9.148;2023-03-16T05:25:05;1.30;;;1.20;;
62588;SDS011;58504;48.770;9.148;2023-03-16T05:27:33;1.10;;;1.10;;
62588;SDS011;58504;48.770;9.148;2023-03-16T05:30:01;1.08;;;1.08;;
62588;SDS011;58504;48.770;9.148;2023-03-16T05:32:27;1.13;;;1.02;;
62588;SDS011;58504;48.770;9.148;2023-03-16T05:34:55;1.42;;;0.80;;
62588;SDS011;58504;48.770;9.148;2023-03-16T05:37:23;1.00;;;1.00;;
62588;SDS011;58504;48.770;9.148;2023-03-16T05:39:50;1.10;;;1.10;;
62588;SDS011;58504;48.770;9.148;2023-03-16T05:42:17;1.17;;;1.17;;
62588;SDS011;58504;48.770;9.148;2023-03-16T05:44:44;1.08;;;1.08;;
62588;SDS011;58504;48.770;9.148;2023-03-16T05:47:11;1.02;;;0.90;;
62588;SDS011;58504;48.770;9.148;2023-03-16T05:49:38;0.90;;;0.90;;
62588;SDS011;58504;48.770;9.148;2023-03-16T05:52:04;1.10;;;1.10;;
62588;SDS011;58504;48.770;9.148;2023-03-16T05:54:33;1.48;;;1.38;;
62588;SDS011;58504;48.770;9.148;2023-03-16T05:56:59;1.27;;;1.23;;
62588;SDS011;58504;48.770;9.148;2023-03-16T05:59:26;1.05;;;1.05;;
62588;SDS011;58504;48.770;9.148;2023-03-16T06:01:53;0.80;;;0.80;;
62588;SDS011;58504;48.770;9.148;2023-03-16T06:04:20;1.10;;;1.05;;
62588;SDS011;58504;48.770;9.148;2023-03-16T06:06:46;1.17;;;1.17;;
62588;SDS011;58504;48.770;9.148;2023-03-16T06:09:13;1.25;;;1.15;;
62588;SDS011;58504;48.770;9.148;2023-03-16T06:11:41;1.00;;;1.00;;
62588;SDS011;58504;48.770;9.148;2023-03-16T06:14:08;1.08;;;1.08;;
62588;SDS011;58504;48.770;9.148;2023-03-16T06:16:35;1.05;;;0.93;;
62588;SDS011;58504;48.770;9.148;2023-03-16T06:19:01;1.02;;;1.02;;
62588;SDS011;58504;48.770;9.148;2023-03-16T06:21:28;0.90;;;0.90;;
62588;SDS011;58504;48.770;9.148;2023-03-16T06:23:55;0.82;;;0.82;;
62588;SDS011;58504;48.770;9.148;2023-03-16T06:26:21;1.27;;;1.17;;
62588;SDS011;58504;48.770;9.148;2023-03-16T06:28:50;1.00;;;0.82;;
62588;SDS011;58504;48.770;9.148;2023-03-16T06:31:16;1.30;;;1.20;;
62588;SDS011;58504;48.770;9.148;2023-03-16T06:33:43;1.48;;;1.38;;
62588;SDS011;58504;48.770;9.148;2023-03-16T06:36:10;0.95;;;0.95;;
62588;SDS011;58504;48.770;9.148;2023-03-16T06:38:37;1.40;;;1.30;;
62588;SDS011;58504;48.770;9.148;2023-03-16T06:41:04;1.02;;;1.00;;
62588;SDS011;58504;48.770;9.148;2023-03-16T06:43:31;1.10;;;1.10;;
62588;SDS011;58504;48.770;9.148;2023-03-16T06:45:59;1.30;;;1.20;;
62588;SDS011;58504;48.770;9.148;2023-03-16T06:48:27;1.50;;;1.33;;
62588;SDS011;58504;48.770;9.148;2023-03-16T06:50:54;1.50;;;1.40;;
62588;SDS011;58504;48.770;9.148;2023-03-16T06:53:21;1.45;;;1.40;;
62588;SDS011;58504;48.770;9.148;2023-03-16T06:55:47;1.52;;;1.30;;
62588;SDS011;58504;48.770;9.148;2023-03-16T06:58:15;1.38;;;1.27;;
62588;SDS011;58504;48.770;9.148;2023-03-16T07:00:42;1.40;;;1.23;;
62588;SDS011;58504;48.770;9.148;2023-03-16T07:03:10;1.60;;;1.50;;
62588;SDS011;58504;48.770;9.148;2023-03-16T07:05:36;1.10;;;1.10;;
62588;SDS011;58504;48.770;9.148;2023-03-16T07:08:03;1.10;;;1.10;;
62588;SDS011;58504;48.770;9.148;2023-03-16T07:10:30;1.10;;;1.10;;
62588;SDS011;58504;48.770;9.148;2023-03-16T07:12:58;1.55;;;1.35;;
62588;SDS011;58504;48.770;9.148;2023-03-16T07:15:25;1.40;;;1.40;;
62588;SDS011;58504;48.770;9.148;2023-03-16T07:17:51;2.05;;;1.95;;
62588;SDS011;58504;48.770;9.148;2023-03-16T07:20:20;1.83;;;1.73;;
62588;SDS011;58504;48.770;9.148;2023-03-16T07:22:46;9.20;;;1.50;;
62588;SDS011;58504;48.770;9.148;2023-03-16T07:25:13;3.05;;;1.45;;
62588;SDS011;58504;48.770;9.148;2023-03-16T07:27:40;3.20;;;1.35;;
62588;SDS011;58504;48.770;9.148;2023-03-16T07:30:08;1.35;;;1.25;;
62588;SDS011;58504;48.770;9.148;2023-03-16T07:32:38;15.93;;;1.92;;
62588;SDS011;58504;48.770;9.148;2023-03-16T07:35:05;1.30;;;1.20;;
62588;SDS011;58504;48.770;9.148;2023-03-16T07:37:34;0.90;;;0.90;;
62588;SDS011;58504;48.770;9.148;2023-03-16T07:40:01;2.75;;;1.30;;
62588;SDS011;58504;48.770;9.148;2023-03-16T07:42:29;2.53;;;1.30;;
62588;SDS011;58504;48.770;9.148;2023-03-16T07:44:55;1.98;;;1.08;;
62588;SDS011;58504;48.770;9.148;2023-03-16T07:47:22;1.25;;;1.15;;
62588;SDS011;58504;48.770;9.148;2023-03-16T07:49:49;1.73;;;1.17;;
62588;SDS011;58504;48.770;9.148;2023-03-16T07:52:16;2.97;;;1.23;;
62588;SDS011;58504;48.770;9.148;2023-03-16T07:54:44;5.40;;;1.48;;
62588;SDS011;58504;48.770;9.148;2023-03-16T07:57:13;2.83;;;1.10;;
62588;SDS011;58504;48.770;9.148;2023-03-16T07:59:40;1.05;;;1.02;;
62588;SDS011;58504;48.770;9.148;2023-03-16T08:02:09;1.88;;;1.25;;
62588;SDS011;58504;48.770;9.148;2023-03-16T08:04:37;2.58;;;1.15;;
62588;SDS011;58504;48.770;9.148;2023-03-16T08:07:06;3.50;;;1.00;;
62588;SDS011;58504;48.770;9.148;2023-03-16T08:09:33;0.98;;;0.90;;
62588;SDS011;58504;48.770;9.148;2023-03-16T08:12:01;1.10;;;1.00;;
62588;SDS011;58504;48.770;9.148;2023-03-16T08:14:29;1.30;;;1.20;;
62588;SDS011;58504;48.770;9.148;2023-03-16T08:16:57;2.20;;;1.00;;
62588;SDS011;58504;48.770;9.148;2023-03-16T08:19:24;1.70;;;1.58;;
62588;SDS011;58504;48.770;9.148;2023-03-16T08:21:51;1.27;;;1.17;;
62588;SDS011;58504;48.770;9.148;2023-03-16T08:24:18;2.95;;;1.35;;
62588;SDS011;58504;48.770;9.148;2023-03-16T08:26:45;4.10;;;1.38;;
62588;SDS011;58504;48.770;9.148;2023-03-16T08:29:14;3.25;;;1.08;;
62588;SDS011;58504;48.770;9.148;2023-03-16T08:31:40;1.42;;;1.05;;
62588;SDS011;58504;48.770;9.148;2023-03-16T08:34:07;1.20;;;1.20;;
62588;SDS011;58504;48.770;9.148;2023-03-16T08:36:35;1.15;;;1.02;;
62588;SDS011;58504;48.770;9.148;2023-03-16T08:39:02;2.78;;;1.30;;
62588;SDS011;58504;48.770;9.148;2023-03-16T08:41:29;1.95;;;1.00;;
62588;SDS011;58504;48.770;9.148;2023-03-16T08:43:56;1.10;;;1.00;;
62588;SDS011;58504;48.770;9.148;2023-03-16T08:46:25;1.58;;;1.45;;
62588;SDS011;58504;48.770;9.148;2023-03-16T08:48:52;1.42;;;0.98;;
62588;SDS011;58504;48.770;9.148;2023-03-16T08:51:20;0.70;;;0.70;;
62588;SDS011;58504;48.770;9.148;2023-03-16T08:53:46;1.75;;;0.90;;
62588;SDS011;58504;48.770;9.148;2023-03-16T08:56:13;1.20;;;1.00;;
62588;SDS011;58504;48.770;9.148;2023-03-16T08:58:40;6.13;;;0.95;;
62588;SDS011;58504;48.770;9.148;2023-03-16T09:01:09;3.83;;;0.90;;
62588;SDS011;58504;48.770;9.148;2023-03-16T09:03:39;0.90;;;0.90;;
62588;SDS011;58504;48.770;9.148;2023-03-16T09:06:07;0.68;;;0.68;;
62588;SDS011;58504;48.770;9.148;2023-03-16T09:08:35;0.98;;;0.98;;
62588;SDS011;58504;48.770;9.148;2023-03-16T09:11:04;0.80;;;0.80;;
62588;SDS011;58504;48.770;9.148;2023-03-16T09:13:33;1.42;;;0.90;;
62588;SDS011;58504;48.770;9.148;2023-03-16T09:16:00;4.70;;;1.05;;
62588;SDS011;58504;48.770;9.148;2023-03-16T09:18:27;2.60;;;1.55;;
62588;SDS011;58504;48.770;9.148;2023-03-16T09:20:57;2.67;;;1.00;;
62588;SDS011;58504;48.770;9.148;2023-03-16T09:23:25;0.70;;;0.70;;
62588;SDS011;58504;48.770;9.148;2023-03-16T09:25:55;0.82;;;0.82;;
62588;SDS011;58504;48.770;9.148;2023-03-16T09:28:23;1.05;;;1.00;;
62588;SDS011;58504;48.770;9.148;2023-03-16T09:30:51;0.73;;;0.73;;
62588;SDS011;58504;48.770;9.148;2023-03-16T09:33:18;2.67;;;0.70;;
62588;SDS011;58504;48.770;9.148;2023-03-16T09:35:45;0.98;;;0.90;;
62588;SDS011;58504;48.770;9.148;2023-03-16T09:38:14;0.95;;;0.95;;
62588;SDS011;58504;48.770;9.148;2023-03-16T09:40:41;0.93;;;0.85;;
62588;SDS011;58504;48.770;9.148;2023-03-16T09:43:22;0.90;;;0.90;;
62588;SDS011;58504;48.770;9.148;2023-03-16T09:46:02;1.70;;;0.68;;
62588;SDS011;58504;48.770;9.148;2023-03-16T09:48:35;1.00;;;0.95;;
62588;SDS011;58504;48.770;9.148;2023-03-16T09:51:04;1.13;;;1.00;;
62588;SDS011;58504;48.770;9.148;2023-03-16T09:53:35;0.93;;;0.70;;
62588;SDS011;58504;48.770;9.148;2023-03-16T09:56:04;1.10;;;1.00;;
62588;SDS011;58504;48.770;9.148;2023-03-16T09:58:33;0.80;;;0.80;;
62588;SDS011;58504;48.770;9.148;2023-03-16T10:01:02;0.80;;;0.68;;
62588;SDS011;58504;48.770;9.148;2023-03-16T10:06:41;1.85;;;0.60;;
62588;SDS011;58504;48.770;9.148;2023-03-16T10:09:22;0.90;;;0.90;;
62588;SDS011;58504;48.770;9.148;2023-03-16T10:11:57;0.90;;;0.90;;
62588;SDS011;58504;48.770;9.148;2023-03-16T10:14:28;1.17;;;0.70;;
62588;SDS011;58504;48.770;9.148;2023-03-16T10:17:00;2.92;;;0.90;;
62588;SDS011;58504;48.770;9.148;2023-03-16T10:19:32;0.95;;;0.70;;
62588;SDS011;58504;48.770;9.148;2023-03-16T10:22:08;0.80;;;0.80;;
62588;SDS011;58504;48.770;9.148;2023-03-16T10:24:44;5.70;;;0.85;;
62588;SDS011;58504;48.770;9.148;2023-03-16T10:27:22;1.38;;;0.90;;
62588;SDS011;58504;48.770;9.148;2023-03-16T10:29:53;0.60;;;0.60;;
62588;SDS011;58504;48.770;9.148;2023-03-16T10:32:21;1.05;;;0.88;;
62588;SDS011;58504;48.770;9.148;2023-03-16T10:34:52;0.80;;;0.60;;
62588;SDS011;58504;48.770;9.148;2023-03-16T10:37:23;0.75;;;0.75;;
62588;SDS011;58504;48.770;9.148;2023-03-16T10:39:56;0.70;;;0.70;;
62588;SDS011;58504;48.770;9.148;2023-03-16T10:42:24;0.70;;;0.70;;
62588;SDS011;58504;48.770;9.148;2023-03-16T10:44:55;0.77;;;0.77;;
62588;SDS011;58504;48.770;9.148;2023-03-16T10:47:23;0.73;;;0.73;;
62588;SDS011;58504;48.770;9.148;2023-03-16T10:49:54;0.75;;;0.75;;
62588;SDS011;58504;48.770;9.148;2023-03-16T10:52:22;1.10;;;0.75;;
62588;SDS011;58504;48.770;9.148;2023-03-16T10:55:00;2.25;;;0.60;;
62588;SDS011;58504;48.770;9.148;2023-03-16T10:57:35;1.02;;;0.80;;
62588;SDS011;58504;48.770;9.148;2023-03-16T11:00:07;0.75;;;0.75;;
62588;SDS011;58504;48.770;9.148;2023-03-16T11:02:38;1.73;;;0.90;;
62588;SDS011;58504;48.770;9.148;2023-03-16T11:05:13;1.55;;;0.68;;
62588;SDS011;58504;48.770;9.148;2023-03-16T11:07:46;0.80;;;0.70;;
62588;SDS011;58504;48.770;9.148;2023-03-16T11:10:23;1.17;;;0.90;;
62588;SDS011;58504;48.770;9.148;2023-03-16T11:12:53;0.50;;;0.50;;
62588;SDS011;58504;48.770;9.148;2023-03-16T11:15:26;0.90;;;0.90;;
62588;SDS011;58504;48.770;9.148;2023-03-16T11:17:59;0.90;;;0.90;;
62588;SDS011;58504;48.770;9.148;2023-03-16T11:20:26;2.42;;;0.95;;
62588;SDS011;58504;48.770;9.148;2023-03-16T11:22:56;1.00;;;0.82;;
62588;SDS011;58504;48.770;9.148;2023-03-16T11:25:27;1.67;;;0.75;;
62588;SDS011;58504;48.770;9.148;2023-03-16T11:28:00;3.17;;;0.70;;
62588;SDS011;58504;48.770;9.148;2023-03-16T11:30:37;1.52;;;0.70;;
62588;SDS011;58504;48.770;9.148;2023-03-16T11:33:07;1.00;;;0.88;;
62588;SDS011;58504;48.770;9.148;2023-03-16T11:35:37;2.72;;;0.60;;
62588;SDS011;58504;48.770;9.148;2023-03-16T11:38:18;0.90;;;0.90;;
62588;SDS011;58504;48.770;9.148;2023-03-16T11:40:54;0.70;;;0.70;;
62588;SDS011;58504;48.770;9.148;2023-03-16T11:43:28;1.83;;;1.02;;
62588;SDS011;58504;48.770;9.148;2023-03-16T11:46:08;3.25;;;0.80;;
62588;SDS011;58504;48.770;9.148;2023-03-16T11:48:40;1.10;;;0.75;;
62588;SDS011;58504;48.770;9.148;2023-03-16T11:53:46;0.90;;;0.50;;
62588;SDS011;58504;48.770;9.148;2023-03-16T11:58:54;1.40;;;0.75;;
62588;SDS011;58504;48.770;9.148;2023-03-16T12:01:30;0.50;;;0.50;;
62588;SDS011;58504;48.770;9.148;2023-03-16T12:04:14;1.60;;;0.77;;
62588;SDS011;58504;48.770;9.148;2023-03-16T12:06:52;0.85;;;0.70;;
62588;SDS011;58504;48.770;9.148;2023-03-16T12:12:23;0.70;;;0.70;;
62588;SDS011;58504;48.770;9.148;2023-03-16T12:15:00;1.02;;;0.93;;
62588;SDS011;58504;48.770;9.148;2023-03-16T12:17:35;1.63;;;0.68;;
62588;SDS011;58504;48.770;9.148;2023-03-16T12:20:04;1.58;;;0.98;;
62588;SDS011;58504;48.770;9.148;2023-03-16T12:22:40;0.45;;;0.45;;
62588;SDS011;58504;48.770;9.148;2023-03-16T12:25:11;3.03;;;1.15;;
62588;SDS011;58504;48.770;9.148;2023-03-16T12:27:43;1.60;;;0.90;;
62588;SDS011;58504;48.770;9.148;2023-03-16T12:30:18;0.55;;;0.55;;
62588;SDS011;58504;48.770;9.148;2023-03-16T12:32:56;3.03;;;0.80;;
62588;SDS011;58504;48.770;9.148;2023-03-16T12:35:32;0.60;;;0.60;;
62588;SDS011;58504;48.770;9.148;2023-03-16T12:38:24;0.95;;;0.60;;
62588;SDS011;58504;48.770;9.148;2023-03-16T12:41:05;1.50;;;0.60;;
62588;SDS011;58504;48.770;9.148;2023-03-16T12:43:53;0.47;;;0.47;;
62588;SDS011;58504;48.770;9.148;2023-03-16T12:46:37;0.32;;;0.32;;
62588;SDS011;58504;48.770;9.148;2023-03-16T12:49:10;0.70;;;0.70;;
62588;SDS011;58504;48.770;9.148;2023-03-16T12:51:39;0.40;;;0.40;;
62588;SDS011;58504;48.770;9.148;2023-03-16T12:54:16;0.55;;;0.52;;
62588;SDS011;58504;48.770;9.148;2023-03-16T12:56:45;0.60;;;0.60;;
62588;SDS011;58504;48.770;9.148;2023-03-16T12:59:16;1.17;;;0.80;;
62588;SDS011;58504;48.770;9.148;2023-03-16T13:01:47;1.83;;;1.37;;
62588;SDS011;58504;48.770;9.148;2023-03-16T13:04:15;1.70;;;1.60;;
62588;SDS011;58504;48.770;9.148;2023-03-16T13:06:45;2.25;;;1.92;;
62588;SDS011;58504;48.770;9.148;2023-03-16T13:09:16;2.05;;;1.55;;
62588;SDS011;58504;48.770;9.148;2023-03-16T13:11:46;1.70;;;1.20;;
62588;SDS011;58504;48.770;9.148;2023-03-16T13:14:29;6.05;;;1.58;;
62588;SDS011;58504;48.770;9.148;2023-03-16T13:17:20;2.92;;;1.50;;
62588;SDS011;58504;48.770;9.148;2023-03-16T13:20:00;0.88;;;0.88;;
62588;SDS011;58504;48.770;9.148;2023-03-16T13:22:39;1.55;;;1.20;;
62588;SDS011;58504;48.770;9.148;2023-03-16T13:25:13;1.63;;;1.02;;
62588;SDS011;58504;48.770;9.148;2023-03-16T13:27:43;1.33;;;0.98;;
62588;SDS011;58504;48.770;9.148;2023-03-16T13:30:16;1.02;;;0.88;;
62588;SDS011;58504;48.770;9.148;2023-03-16T13:32:46;1.27;;;0.85;;
62588;SDS011;58504;48.770;9.148;2023-03-16T13:35:17;0.68;;;0.68;;
62588;SDS011;58504;48.770;9.148;2023-03-16T13:37:46;1.13;;;1.02;;
62588;SDS011;58504;48.770;9.148;2023-03-16T13:40:16;1.02;;;0.70;;
62588;SDS011;58504;48.770;9.148;2023-03-16T13:42:45;0.70;;;0.70;;
62588;SDS011;58504;48.770;9.148;2023-03-16T13:45:14;1.48;;;0.93;;
62588;SDS011;58504;48.770;9.148;2023-03-16T13:47:46;0.77;;;0.70;;
62588;SDS011;58504;48.770;9.148;2023-03-16T13:50:14;0.63;;;0.63;;
62588;SDS011;58504;48.770;9.148;2023-03-16T13:52:42;0.57;;;0.57;;
62588;SDS011;58504;48.770;9.148;2023-03-16T13:55:16;0.68;;;0.68;;
62588;SDS011;58504;48.770;9.148;2023-03-16T13:57:46;1.10;;;1.00;;
62588;SDS011;58504;48.770;9.148;2023-03-16T14:00:16;1.00;;;0.88;;
62588;SDS011;58504;48.770;9.148;2023-03-16T14:02:45;1.57;;;0.73;;
62588;SDS011;58504;48.770;9.148;2023-03-16T14:05:16;0.65;;;0.65;;
62588;SDS011;58504;48.770;9.148;2023-03-16T14:07:46;3.15;;;0.70;;
62588;SDS011;58504;48.770;9.148;2023-03-16T14:10:15;0.60;;;0.60;;
62588;SDS011;58504;48.770;9.148;2023-03-16T14:12:49;0.73;;;0.73;;
62588;SDS011;58504;48.770;9.148;2023-03-16T14:15:18;1.23;;;0.70;;
62588;SDS011;58504;48.770;9.148;2023-03-16T14:17:46;0.63;;;0.63;;
62588;SDS011;58504;48.770;9.148;2023-03-16T14:20:16;0.85;;;0.70;;
62588;SDS011;58504;48.770;9.148;2023-03-16T14:22:44;0.68;;;0.68;;
62588;SDS011;58504;48.770;9.148;2023-03-16T14:25:15;0.70;;;0.70;;
62588;SDS011;58504;48.770;9.148;2023-03-16T14:27:46;0.63;;;0.63;;
62588;SDS011;58504;48.770;9.148;2023-03-16T14:30:14;1.52;;;0.82;;
62588;SDS011;58504;48.770;9.148;2023-03-16T14:32:54;1.13;;;1.05;;
62588;SDS011;58504;48.770;9.148;2023-03-16T14:35:25;0.80;;;0.80;;
62588;SDS011;58504;48.770;9.148;2023-03-16T14:37:54;1.08;;;0.60;;
62588;SDS011;58504;48.770;9.148;2023-03-16T14:40:22;0.73;;;0.73;;
62588;SDS011;58504;48.770;9.148;2023-03-16T14:42:51;0.45;;;0.45;;
62588;SDS011;58504;48.770;9.148;2023-03-16T14:45:19;0.60;;;0.50;;
62588;SDS011;58504;48.770;9.148;2023-03-16T14:47:48;0.95;;;0.57;;
62588;SDS011;58504;48.770;9.148;2023-03-16T14:50:21;0.63;;;0.63;;
62588;SDS011;58504;48.770;9.148;2023-03-16T14:52:49;1.10;;;0.70;;
62588;SDS011;58504;48.770;9.148;2023-03-16T14:55:17;0.98;;;0.98;;
62588;SDS011;58504;48.770;9.148;2023-03-16T14:57:47;0.73;;;0.70;;
62588;SDS011;58504;48.770;9.148;2023-03-16T15:00:15;0.57;;;0.52;;
62588;SDS011;58504;48.770;9.148;2023-03-16T15:02:44;0.70;;;0.70;;
62588;SDS011;58504;48.770;9.148;2023-03-16T15:05:21;1.98;;;0.93;;
62588;SDS011;58504;48.770;9.148;2023-03-16T15:07:53;1.27;;;1.00;;
62588;SDS011;58504;48.770;9.148;2023-03-16T15:10:21;0.75;;;0.75;;
62588;SDS011;58504;48.770;9.148;2023-03-16T15:12:50;0.68;;;0.68;;
62588;SDS011;58504;48.770;9.148;2023-03-16T15:15:19;1.67;;;0.50;;
62588;SDS011;58504;48.770;9.148;2023-03-16T15:17:48;0.60;;;0.60;;